Latest Weather Observations for South Johnstone

IDQ60801

Issued at 11:32 am EST Tuesday 28 July 2015 (issued every 30 minutes, with the page automatically refreshed every 10 minutes)

About weather observations | Map of weather stations | Latest weather observations for QLD | Other Formats
Station Details ID: 032037 Name: SOUTH JOHNSTONE EXP STN Lat: -17.61 Lon: 146.00 Height: 18.3 m
Data from the previous 72 hours. | See also: Recent months at South Johnstone
Date/Time
EST
Temp
°C
App
Temp
°C
Dew
Point
Rel
Hum
%
Delta-T
°C
Wind Press
QNH
hPa
Press
MSL
hPa
Rain
since 9 am
mm
Dir
 
Spd
km/h
Gust
km/h
Spd
kts
Gust
kts
28/11:30am 21.6 23.6 20.8 95 0.5 ESE 11 17 6 9 1022.4 - 6.4
28/11:00am 21.7 22.8 20.5 93 0.8 SE 15 22 8 12 1022.6 - 2.4
28/10:30am 22.0 23.7 20.9 93 0.7 SSE 13 22 7 12 1022.6 - 1.4
28/10:00am 22.5 24.2 21.0 91 1.0 SSE 13 22 7 12 1022.7 - 0.2
28/09:30am 22.1 24.6 21.0 93 0.7 SSE 9 17 5 9 1022.6 - 0.0
28/09:00am 21.1 21.9 19.8 92 0.8 S 15 24 8 13 1022.5 1022.4 1.4
28/08:30am 22.1 23.4 20.2 89 1.2 SSE 13 20 7 11 1022.1 - 0.4
28/08:00am 22.0 23.2 20.0 88 1.3 S 13 22 7 12 1021.8 - 0.4
28/07:30am 21.3 22.4 19.6 90 1.1 SW 13 19 7 10 1021.6 - 0.0
28/07:00am 21.7 23.0 19.3 86 1.5 SSW 11 22 6 12 1021.2 - 0.0
28/06:30am 21.6 22.5 19.2 86 1.5 SSW 13 19 7 10 1021.1 - 0.0
28/06:00am 19.4 22.1 18.6 95 0.5 NNE 2 7 1 4 1021.2 1021.1 0.0
28/05:30am 19.1 22.1 18.5 96 0.4 CALM 0 6 0 3 1020.9 - 0.0
28/05:00am 18.8 21.7 18.1 96 0.4 CALM 0 7 0 4 1020.8 - 0.0
28/04:30am 18.8 21.3 18.1 96 0.4 SW 2 6 1 3 1020.7 - 0.0
28/04:00am 18.9 21.5 18.3 96 0.4 WSW 2 6 1 3 1020.9 - 0.0
28/03:30am 18.6 20.6 17.9 96 0.4 WNW 4 7 2 4 1020.9 - 0.0
28/03:00am 18.5 20.8 17.8 96 0.4 N 2 7 1 4 1021.1 1021.0 0.0
28/02:30am 18.5 20.1 17.8 96 0.4 WSW 6 9 3 5 1021.3 - 0.0
28/02:00am 18.2 20.8 17.5 96 0.4 CALM 0 0 0 0 1021.5 - 0.0
28/01:30am 18.1 20.7 17.6 97 0.3 CALM 0 0 0 0 1021.7 - 0.0
28/01:00am 18.1 19.5 17.4 96 0.4 W 6 11 3 6 1021.8 - 0.0
28/12:30am 18.3 19.7 17.8 97 0.3 W 7 13 4 7 1022.0 - 0.0
28/12:00am 18.5 20.1 17.8 96 0.4 W 6 11 3 6 1022.2 1022.1 0.0
 
Date/Time
EST
Temp
°C
App
Temp
°C
Dew
Point
Rel
Hum
%
Delta-T
°C
Wind Press
QNH
hPa
Press
MSL
hPa
Rain
since 9 am
mm
Dir
 
Spd
km/h
Gust
km/h
Spd
kts
Gust
kts
27/11:30pm 18.5 19.1 17.8 96 0.4 WSW 11 15 6 8 1022.3 - 0.0
27/11:00pm 18.6 19.3 17.9 96 0.4 WSW 11 13 6 7 1022.4 - 0.0
27/10:30pm 18.8 19.5 18.0 95 0.5 WSW 11 15 6 8 1022.6 - 0.0
27/10:00pm 19.0 20.8 18.4 96 0.4 W 6 9 3 5 1022.5 - 0.0
27/09:30pm 19.4 20.8 18.6 95 0.5 WSW 9 13 5 7 1022.4 - 0.0
27/09:00pm 19.7 22.9 18.9 95 0.5 CALM 0 6 0 3 1022.5 1022.4 0.0
27/08:30pm 19.9 22.8 19.1 95 0.5 W 2 7 1 4 1022.4 - 0.0
27/08:00pm 20.3 23.6 19.2 93 0.7 CALM 0 0 0 0 1022.0 - 0.0
27/07:30pm 21.7 24.0 19.8 89 1.2 SSW 7 11 4 6 1021.7 - 0.0
27/07:00pm 21.0 23.4 19.6 92 0.9 S 6 9 3 5 1021.5 - 0.0
27/06:30pm 21.5 23.6 19.4 88 1.3 SSE 7 9 4 5 1021.0 - 0.0
27/06:00pm 22.1 24.4 19.4 85 1.7 SSE 6 9 3 5 1020.6 1020.5 0.0
27/05:30pm 23.0 25.1 19.4 80 2.3 SSE 7 9 4 5 1020.3 - 0.0
27/05:00pm 23.9 25.6 19.4 76 2.9 SE 9 15 5 8 1020.0 - 0.0
27/04:30pm 24.7 25.8 18.9 70 3.7 SE 11 19 6 10 1019.5 - 0.0
27/04:00pm 25.3 26.0 18.9 67 4.1 SSE 13 20 7 11 1019.2 - 0.0
27/03:30pm 25.7 26.2 18.3 63 4.7 SE 13 24 7 13 1019.2 - 0.0
27/03:00pm 26.1 26.7 18.7 63 4.7 SE 13 22 7 12 1019.1 1019.0 0.0
27/02:30pm 26.4 27.0 18.5 62 5.0 SE 13 22 7 12 1019.2 - 0.0
27/02:00pm 26.4 26.8 18.2 60 5.2 ESE 13 20 7 11 1019.5 - 0.0
27/01:30pm 26.2 26.3 18.3 61 5.0 ESE 15 26 8 14 1019.8 - 0.0
27/01:00pm 26.5 27.0 18.3 60 5.2 SE 13 22 7 12 1020.1 - 0.0
27/12:30pm 26.2 26.6 18.1 61 5.1 SSE 13 20 7 11 1020.7 - 0.0
27/12:00pm 26.0 26.4 18.1 61 5.0 S 13 20 7 11 1021.3 1021.2 0.0
27/11:30am 25.3 26.8 19.7 71 3.6 S 11 20 6 11 1021.8 - 0.0
27/11:00am 24.7 25.8 19.7 73 3.2 S 13 20 7 11 1022.2 - 0.0
27/10:30am 24.3 25.7 19.5 74 3.1 S 11 19 6 10 1022.8 - 0.0
27/10:00am 24.2 25.0 19.0 72 3.3 S 13 19 7 10 1022.9 - 0.0
27/09:30am 24.0 25.5 19.8 77 2.7 SSE 11 15 6 8 1022.9 - 0.0
27/09:00am 21.8 24.1 19.9 89 1.2 WSW 7 11 4 6 1022.8 1022.7 0.2
27/08:30am 20.3 22.9 19.3 94 0.6 W 4 9 2 5 1022.6 - 0.2
27/08:00am 18.9 21.9 18.4 97 0.3 CALM 0 6 0 3 1022.3 - 0.2
27/07:30am 18.1 20.1 17.8 98 0.2 W 4 7 2 4 1022.0 - 0.2
27/07:00am 17.9 19.8 17.6 98 0.2 W 4 11 2 6 1021.4 - 0.2
27/06:00am 18.1 20.8 17.8 98 0.2 CALM 0 0 0 0 1020.8 1020.7 0.2
27/05:30am 18.3 20.7 18.0 98 0.2 N 2 6 1 3 1020.7 - 0.2
27/05:00am 18.6 21.5 18.1 97 0.3 CALM 0 0 0 0 1020.6 - 0.0
27/04:30am 18.7 20.3 18.2 97 0.3 WSW 7 11 4 6 1020.4 - 0.0
27/04:00am 18.9 21.6 18.6 98 0.2 WSW 2 6 1 3 1020.3 - 0.0
27/03:30am 19.1 22.2 18.6 97 0.3 CALM 0 0 0 0 1020.4 - 0.0
27/03:00am 19.1 21.8 18.6 97 0.3 NW 2 9 1 5 1020.6 1020.5 0.0
27/02:30am 19.2 21.1 18.9 98 0.2 WSW 7 11 4 6 1020.7 - 0.0
27/02:00am 19.3 21.7 18.8 97 0.3 W 4 9 2 5 1020.9 - 0.0
27/01:30am 19.1 20.1 18.6 97 0.3 WSW 11 15 6 8 1021.1 - 0.0
27/01:00am 19.3 21.1 18.8 97 0.3 W 7 11 4 6 1021.4 - 0.0
27/12:30am 19.6 21.2 19.1 97 0.3 WSW 9 13 5 7 1021.6 - 0.0
27/12:00am 20.0 23.1 19.4 96 0.4 WSW 2 6 1 3 1021.9 1021.8 0.0
 
Date/Time
EST
Temp
°C
App
Temp
°C
Dew
Point
Rel
Hum
%
Delta-T
°C
Wind Press
QNH
hPa
Press
MSL
hPa
Rain
since 9 am
mm
Dir
 
Spd
km/h
Gust
km/h
Spd
kts
Gust
kts
26/11:30pm 20.1 21.9 19.5 96 0.4 WSW 9 13 5 7 1022.0 - 0.0
26/11:00pm 20.3 22.5 19.7 96 0.4 WSW 7 11 4 6 1022.2 - 0.0
26/10:30pm 20.3 22.1 19.5 95 0.5 WSW 9 13 5 7 1022.1 - 0.0
26/10:00pm 20.5 22.5 19.9 96 0.4 WSW 9 13 5 7 1022.3 - 0.0
26/09:30pm 20.6 22.9 19.8 95 0.5 WSW 7 11 4 6 1022.3 - 0.0
26/09:00pm 20.8 24.5 20.0 95 0.5 CALM 0 0 0 0 1022.2 1022.1 0.0
26/08:30pm 21.2 23.3 20.1 93 0.7 SW 9 11 5 6 1022.1 - 0.0
26/08:00pm 21.3 24.1 20.4 95 0.6 WSW 6 9 3 5 1021.5 - 0.0
26/07:30pm 21.8 24.7 20.6 93 0.8 WSW 6 9 3 5 1021.1 - 0.0
26/07:00pm 22.2 26.3 20.7 91 1.0 CALM 0 0 0 0 1020.7 - 0.0
26/06:30pm 22.7 25.6 20.7 88 1.3 S 6 9 3 5 1020.5 - 0.0
26/06:00pm 23.1 25.9 20.8 87 1.5 SSE 7 11 4 6 1020.1 1020.0 0.0
26/05:30pm 23.6 25.6 20.7 84 1.9 SE 11 17 6 9 1019.6 - 0.0
26/05:00pm 24.0 25.5 20.6 81 2.2 SE 13 20 7 11 1019.2 - 0.0
26/04:30pm 24.3 24.9 20.3 78 2.6 SE 17 24 9 13 1018.5 - 0.0
26/04:00pm 24.4 25.0 20.2 77 2.7 SE 17 24 9 13 1018.3 - 0.0
26/03:30pm 24.7 24.9 20.2 76 2.9 SE 19 26 10 14 1018.0 - 0.0
26/03:00pm 25.4 25.7 20.3 73 3.3 SE 19 26 10 14 1018.0 1017.9 0.0
26/02:30pm 25.6 26.2 20.2 72 3.5 SE 17 24 9 13 1018.0 - 0.0
26/02:00pm 25.5 26.5 20.3 73 3.4 SE 15 20 8 11 1018.2 - 0.0
26/01:30pm 25.3 25.4 19.9 72 3.5 ESE 19 24 10 13 1018.7 - 0.0
26/01:00pm 24.9 26.0 20.4 76 2.9 SSE 15 22 8 12 1019.0 - 0.0
26/12:30pm 24.9 25.9 20.3 75 3.0 SSE 15 24 8 13 1019.3 - 0.0
26/12:00pm 25.0 25.6 20.2 74 3.1 SSE 17 22 9 12 1019.7 1019.6 0.0
26/11:30am 25.1 26.1 20.3 74 3.1 S 15 20 8 11 1020.1 - 0.0
26/11:00am 25.5 26.2 20.4 73 3.3 SE 17 24 9 13 1020.7 - 0.0
26/10:30am 24.1 25.6 20.6 81 2.3 SSE 13 22 7 12 1021.1 - 0.0
26/10:00am 23.9 25.1 20.7 82 2.1 S 15 24 8 13 1021.4 - 0.0
26/09:30am 24.0 25.7 20.9 83 2.0 S 13 20 7 11 1021.6 - 0.0
26/09:00am 23.2 24.7 20.6 85 1.7 S 13 19 7 10 1021.3 1021.2 0.2
26/08:30am 21.4 25.5 20.8 96 0.4 CALM 0 0 0 0 1021.1 - 0.2
26/08:00am 20.2 23.4 19.7 97 0.3 WSW 2 6 1 3 1021.0 - 0.2
26/07:30am 19.5 22.8 19.0 97 0.3 CALM 0 0 0 0 1020.9 - 0.2
26/07:00am 19.4 22.3 19.1 98 0.2 WSW 2 6 1 3 1020.4 - 0.2
26/06:30am 19.4 22.7 19.1 98 0.2 CALM 0 6 0 3 1020.1 - 0.2
26/06:00am 19.6 22.2 19.3 98 0.2 W 4 9 2 5 1019.7 1019.6 0.2
26/05:30am 19.6 21.6 19.1 97 0.3 WSW 7 11 4 6 1019.7 - 0.2
26/05:00am 19.6 22.5 19.1 97 0.3 WSW 2 7 1 4 1019.5 - 0.2
26/04:30am 19.3 22.5 18.8 97 0.3 CALM 0 0 0 0 1019.6 - 0.2
26/04:00am 19.6 21.6 19.1 97 0.3 WSW 7 9 4 5 1019.6 - 0.0
26/03:30am 19.5 22.8 19.0 97 0.3 CALM 0 0 0 0 1019.6 - 0.0
26/03:00am 19.7 23.1 19.4 98 0.2 CALM 0 6 0 3 1019.7 1019.6 0.0
26/02:30am 19.7 22.7 19.2 97 0.3 W 2 7 1 4 1019.8 - 0.0
26/02:00am 19.8 22.4 19.3 97 0.3 W 4 9 2 5 1020.1 - 0.0
26/01:30am 19.9 23.3 19.4 97 0.3 CALM 0 9 0 5 1020.4 - 0.0
26/01:00am 19.6 21.8 19.1 97 0.3 WSW 6 9 3 5 1020.6 - 0.0
26/12:30am 19.8 21.8 19.2 96 0.4 W 7 9 4 5 1020.9 - 0.0
26/12:00am 20.0 22.3 19.4 96 0.4 WSW 6 11 3 6 1021.1 1021.0 0.0
 
Date/Time
EST
Temp
°C
App
Temp
°C
Dew
Point
Rel
Hum
%
Delta-T
°C
Wind Press
QNH
hPa
Press
MSL
hPa
Rain
since 9 am
mm
Dir
 
Spd
km/h
Gust
km/h
Spd
kts
Gust
kts
25/11:30pm 20.1 22.3 19.6 97 0.3 W 7 11 4 6 1021.2 - 0.0
25/11:00pm 20.0 22.2 19.5 97 0.3 W 7 11 4 6 1021.6 - 0.0
25/10:30pm 20.3 22.6 19.5 95 0.5 WSW 6 9 3 5 1021.8 - 0.0
25/10:00pm 20.4 22.9 19.8 96 0.4 WSW 6 9 3 5 1021.8 - 0.0
25/09:30pm 20.8 23.8 20.0 95 0.5 W 4 7 2 4 1021.7 - 0.0
25/09:00pm 21.2 25.0 20.1 93 0.7 CALM 0 7 0 4 1021.6 1021.5 0.0
25/08:30pm 21.2 23.8 20.1 93 0.7 W 6 7 3 4 1021.3 - 0.0
25/08:00pm 21.2 25.0 20.1 93 0.7 CALM 0 7 0 4 1020.8 - 0.0
25/07:30pm 21.5 25.0 20.3 93 0.8 S 2 6 1 3 1020.4 - 0.0
25/07:00pm 21.6 24.1 20.2 92 0.9 S 7 9 4 5 1020.0 - 0.0
25/06:30pm 21.7 23.7 20.0 90 1.1 SE 9 11 5 6 1019.6 - 0.0
25/06:00pm 22.4 24.9 20.2 87 1.4 SE 7 9 4 5 1019.0 1018.9 0.0
25/05:30pm 23.6 25.3 20.2 81 2.2 SE 11 17 6 9 1018.6 - 0.0
25/05:00pm 24.4 25.5 19.7 75 3.0 ESE 13 17 7 9 1018.4 - 0.0
25/04:30pm 25.0 26.6 19.9 73 3.3 ESE 11 19 6 10 1018.1 - 0.0
25/04:00pm 25.6 27.0 19.5 69 3.9 E 11 19 6 10 1017.8 - 0.0
25/03:30pm 26.7 28.3 19.2 63 4.8 ESE 9 15 5 8 1017.9 - 0.0
25/03:00pm 26.6 28.0 19.5 65 4.6 ESE 11 17 6 9 1018.1 1018.0 0.0
25/02:30pm 26.1 27.2 19.6 67 4.2 ESE 13 19 7 10 1018.5 - 0.0
25/02:00pm 26.0 26.9 19.3 66 4.3 ESE 13 19 7 10 1018.7 - 0.0
25/01:30pm 25.6 27.0 19.5 69 3.9 ESE 11 17 6 9 1018.9 - 0.0
25/01:00pm 25.9 27.5 19.9 69 3.9 SE 11 17 6 9 1019.3 - 0.0
25/12:30pm 25.4 27.5 20.2 73 3.4 SSE 9 13 5 7 1019.6 - 0.0
25/12:00pm 25.5 27.5 19.9 71 3.6 S 9 15 5 8 1020.0 1019.9 0.0

Other Formats:

Comma delimited format used in spreadsheet applications
http://www.bom.gov.au/fwo/IDQ60801/IDQ60801.95292.axf

JavaScript Object Notation format (JSON) in row-major order
http://www.bom.gov.au/fwo/IDQ60801/IDQ60801.95292.json